Dn Vatan — TCZN6 — position and weather

sailwx.info

Track history (hours):
 
Tides and Currents Weather Stations Pressure Air Temp Water Temp Dewpoint Dewpoint Depression Visibility Wind Speed Wind Dir Waves Ship Positions

Dn Vatan

Last reported at 2015-Jul-29 02:33 UTC. Time now 2015-Aug-03 13:13 UTC.
Position N 40°47' E 018°34'.

Length 196 m; draft 6.6 m.

Type: Cargo ship. MMSI: 270991365.

Date/timePositionNaut miles runAvg speedWind from/ knotsBaromVisibWave heightAir tempDewpointWater temp
2015-Jul-29 02:33N 40°47' E 018°34'1212.3
2015-Jul-29 01:32N 40°36' E 018°43'2612.1
2015-Jul-28 23:25N 40°12' E 018°55'11812.0
2015-Jul-28 13:33N 38°21' E 019°46'23411.7
2015-Jul-27 17:32N 35°21' E 022°53'34812.0
2015-Jul-26 12:31N 32°49' E 029°11'1212.0
2015-Jul-26 11:33N 32°45' E 029°24'1212.0
2015-Jul-26 10:33N 32°40' E 029°37'1212.0
2015-Jul-26 09:33N 32°36' E 029°50'1212.1
2015-Jul-26 08:33N 32°31' E 030°03'1212.0
2015-Jul-26 07:33N 32°27' E 030°16'1312.3
2015-Jul-26 06:28N 32°21' E 030°31'1212.7
2015-Jul-26 05:32N 32°17' E 030°43'1312.6
2015-Jul-26 04:32N 32°12' E 030°57'2812.2
2015-Jul-26 02:14N 32°02' E 031°28'811.9
2015-Jul-26 01:33N 31°58' E 031°36'1412.1
2015-Jul-26 00:22N 31°50' E 031°51'1112.1
2015-Jul-25 23:27N 31°43' E 032°01'1112.0
2015-Jul-25 22:32N 31°36' E 032°10'1211.8
2015-Jul-25 21:33N 31°30' E 032°22'1310.6
2015-Jul-25 20:17N 31°17' E 032°22'8 8.8
2015-Jul-25 19:20N 31°08' E 032°19'8 9.0
2015-Jul-25 18:29N 31°01' E 032°19'10 9.6
2015-Jul-25 17:24N 30°50' E 032°19'62 5.2
2015-Jul-25 05:33N 29°50' E 032°34'1 1.3
2015-Jul-25 04:31N 29°49' E 032°33'  
Track history (hours):
 
Tides and Currents Weather Stations Pressure Air Temp Water Temp Dewpoint Dewpoint Depression Visibility Wind Speed Wind Dir Waves Ship Positions

Dn Vatan

Last reported at 2015-Jul-29 02:33 UTC. Time now 2015-Aug-03 13:13 UTC.
Position N 40°47' E 018°34'.

Length 196 m; draft 6.6 m.

Type: Cargo ship. MMSI: 270991365.

Date/timePositionNaut miles runAvg speedWind from/ knotsBaromVisibWave heightAir tempDewpointWater temp
2015-Jul-29 02:33N 40°47' E 018°34'1212.3
2015-Jul-29 01:32N 40°36' E 018°43'2612.1
2015-Jul-28 23:25N 40°12' E 018°55'11812.0
2015-Jul-28 13:33N 38°21' E 019°46'23411.7
2015-Jul-27 17:32N 35°21' E 022°53'34812.0
2015-Jul-26 12:31N 32°49' E 029°11'1212.0
2015-Jul-26 11:33N 32°45' E 029°24'1212.0
2015-Jul-26 10:33N 32°40' E 029°37'1212.0
2015-Jul-26 09:33N 32°36' E 029°50'1212.1
2015-Jul-26 08:33N 32°31' E 030°03'1212.0
2015-Jul-26 07:33N 32°27' E 030°16'1312.3
2015-Jul-26 06:28N 32°21' E 030°31'1212.7
2015-Jul-26 05:32N 32°17' E 030°43'1312.6
2015-Jul-26 04:32N 32°12' E 030°57'2812.2
2015-Jul-26 02:14N 32°02' E 031°28'811.9
2015-Jul-26 01:33N 31°58' E 031°36'1412.1
2015-Jul-26 00:22N 31°50' E 031°51'1112.1
2015-Jul-25 23:27N 31°43' E 032°01'1112.0
2015-Jul-25 22:32N 31°36' E 032°10'1211.8
2015-Jul-25 21:33N 31°30' E 032°22'1310.6
2015-Jul-25 20:17N 31°17' E 032°22'8 8.8
2015-Jul-25 19:20N 31°08' E 032°19'8 9.0
2015-Jul-25 18:29N 31°01' E 032°19'10 9.6
2015-Jul-25 17:24N 30°50' E 032°19'62 5.2
2015-Jul-25 05:33N 29°50' E 032°34'1 1.3
2015-Jul-25 04:31N 29°49' E 032°33'  

Dump ship's entire track history